Time;durP1;ratioP1;P1;durP2;ratioP2;P2;SDS_P1;SDS_P2;PMS_P1;PMS_P2;Temp;Humidity;BMP_temperature;BMP_pressure;BME280_temperature;BME280_humidity;BME280_pressure;Samples;Min_cycle;Max_cycle;Signal;HPM_P1;HPM_P2
2023/12/02 00:01:44;;;;;;;33.50;16.85;;;;;;;;;;5010485;28;20054;-88
2023/12/02 00:04:10;;;;;;;29.52;16.95;;;;;;;;;;4996129;28;20057;-89
2023/12/02 00:06:37;;;;;;;34.78;18.20;;;;;;;;;;5023294;28;20053;-88
2023/12/02 00:09:03;;;;;;;32.88;16.55;;;;;;;;;;5007241;28;20042;-89
2023/12/02 00:11:29;;;;;;;29.40;15.73;;;;;;;;;;4996834;28;20048;-89
2023/12/02 00:13:55;;;;;;;30.23;16.15;;;;;;;;;;5010334;28;20046;-88
2023/12/02 00:16:21;;;;;;;30.98;17.27;;;;;;;;;;5018274;28;20572;-89
2023/12/02 00:18:47;;;;;;;31.33;18.45;;;;;;;;;;4990969;28;20050;-88
2023/12/02 00:21:13;;;;;;;32.78;18.00;;;;;;;;;;5024406;28;20049;-87
2023/12/02 00:23:39;;;;;;;32.92;16.80;;;;;;;;;;5010624;28;20045;-89
2023/12/02 00:26:07;;;;;;;30.60;16.60;;;;;;;;;;5009916;28;20566;-89
2023/12/02 00:28:33;;;;;;;30.33;17.25;;;;;;;;;;5009684;28;20531;-89
2023/12/02 00:30:59;;;;;;;31.58;17.13;;;;;;;;;;5010259;28;20070;-88
2023/12/02 00:33:25;;;;;;;32.60;17.40;;;;;;;;;;5010804;28;20058;-89
2023/12/02 00:35:52;;;;;;;32.53;17.13;;;;;;;;;;5002564;28;20562;-89
2023/12/02 00:38:18;;;;;;;31.25;16.30;;;;;;;;;;5011952;28;20483;-89
2023/12/02 00:40:48;;;;;;;35.85;17.67;;;;;;;;;;5026604;28;20052;-87
2023/12/02 00:43:14;;;;;;;32.70;17.17;;;;;;;;;;5019456;28;20084;-88
2023/12/02 00:45:40;;;;;;;31.35;17.13;;;;;;;;;;5023240;28;20077;-89
2023/12/02 00:48:06;;;;;;;28.73;15.77;;;;;;;;;;5022843;28;20054;-87
2023/12/02 00:50:32;;;;;;;29.73;17.45;;;;;;;;;;5006797;28;20092;-88
2023/12/02 00:52:58;;;;;;;28.45;15.50;;;;;;;;;;5027379;28;20419;-89
2023/12/02 00:55:24;;;;;;;30.45;17.45;;;;;;;;;;5027859;28;20046;-88
2023/12/02 00:57:50;;;;;;;30.55;16.58;;;;;;;;;;5006451;28;20048;-88
2023/12/02 01:00:16;;;;;;;31.27;15.75;;;;;;;;;;5006848;28;20393;-88
2023/12/02 01:02:43;;;;;;;30.58;16.17;;;;;;;;;;4996466;28;20364;-87
2023/12/02 01:05:09;;;;;;;26.25;15.32;;;;;;;;;;4998026;28;20089;-87
2023/12/02 01:07:35;;;;;;;28.48;16.65;;;;;;;;;;5022325;28;20049;-90
2023/12/02 01:10:05;;;;;;;30.27;17.35;;;;;;;;;;4973850;28;20054;-87
2023/12/02 01:12:34;;;;;;;30.75;16.85;;;;;;;;;;4998006;28;20046;-87
2023/12/02 01:15:00;;;;;;;31.25;15.85;;;;;;;;;;5025955;28;20053;-88
2023/12/02 01:17:27;;;;;;;31.27;16.02;;;;;;;;;;4993012;28;20557;-89
2023/12/02 01:19:54;;;;;;;31.00;16.88;;;;;;;;;;5009114;28;20715;-89
2023/12/02 01:22:20;;;;;;;29.48;16.35;;;;;;;;;;5019538;28;20643;-88
2023/12/02 01:24:46;;;;;;;30.13;16.33;;;;;;;;;;5022183;28;20054;-89
2023/12/02 01:27:12;;;;;;;31.17;16.33;;;;;;;;;;5022205;28;20142;-89
2023/12/02 01:29:38;;;;;;;31.10;17.50;;;;;;;;;;4997610;28;20046;-89
2023/12/02 01:32:04;;;;;;;27.50;15.48;;;;;;;;;;5027345;28;20078;-87
2023/12/02 01:34:31;;;;;;;29.98;16.00;;;;;;;;;;4990123;28;20393;-89
2023/12/02 01:36:57;;;;;;;30.92;16.42;;;;;;;;;;5025437;28;20108;-89
2023/12/02 01:39:23;;;;;;;28.65;16.80;;;;;;;;;;5026291;28;20042;-88
2023/12/02 01:41:50;;;;;;;32.88;17.80;;;;;;;;;;5024599;28;20050;-89
2023/12/02 01:44:16;;;;;;;27.00;15.00;;;;;;;;;;5007702;28;20384;-88
2023/12/02 01:46:42;;;;;;;30.60;16.63;;;;;;;;;;5040626;28;20077;-89
2023/12/02 01:49:08;;;;;;;31.63;17.15;;;;;;;;;;5023710;28;20508;-88
2023/12/02 01:51:35;;;;;;;29.00;16.50;;;;;;;;;;4991528;28;20042;-89
2023/12/02 01:54:01;;;;;;;30.95;16.58;;;;;;;;;;5010069;28;20046;-89
2023/12/02 01:56:27;;;;;;;30.90;15.90;;;;;;;;;;5010940;28;20050;-88
2023/12/02 01:58:53;;;;;;;28.88;16.40;;;;;;;;;;5003758;28;20496;-88
2023/12/02 02:01:20;;;;;;;33.97;16.38;;;;;;;;;;5020173;28;20132;-88
2023/12/02 02:03:50;;;;;;;30.30;17.83;;;;;;;;;;5022660;28;20061;-89
2023/12/02 02:06:16;;;;;;;31.38;17.20;;;;;;;;;;5005619;28;20388;-87
2023/12/02 02:08:42;;;;;;;26.90;14.93;;;;;;;;;;5005673;28;20046;-88
2023/12/02 02:11:08;;;;;;;31.88;17.55;;;;;;;;;;4989400;28;20042;-89
2023/12/02 02:13:36;;;;;;;28.98;16.13;;;;;;;;;;4999483;28;20042;-88
2023/12/02 02:16:02;;;;;;;29.83;16.75;;;;;;;;;;5025159;28;20046;-88
2023/12/02 02:18:29;;;;;;;31.23;17.58;;;;;;;;;;5039462;28;20042;-88
2023/12/02 02:20:56;;;;;;;35.05;19.73;;;;;;;;;;4996889;28;20125;-89
2023/12/02 02:23:23;;;;;;;32.28;17.70;;;;;;;;;;5011890;28;20053;-89
2023/12/02 02:25:50;;;;;;;33.25;17.05;;;;;;;;;;4993038;28;20054;-88
2023/12/02 02:28:20;;;;;;;30.98;17.83;;;;;;;;;;5017422;28;20096;-89
2023/12/02 02:30:47;;;;;;;29.60;17.15;;;;;;;;;;5029205;28;20042;-88
2023/12/02 02:33:13;;;;;;;27.38;15.80;;;;;;;;;;5027225;28;20053;-89
2023/12/02 02:35:39;;;;;;;31.58;16.92;;;;;;;;;;5008252;28;20046;-88
2023/12/02 02:38:05;;;;;;;25.92;15.70;;;;;;;;;;5025973;28;20412;-90
2023/12/02 02:40:31;;;;;;;30.30;16.20;;;;;;;;;;5025456;28;20050;-90
2023/12/02 02:42:57;;;;;;;31.83;16.45;;;;;;;;;;5035456;28;20041;-89
2023/12/02 02:45:23;;;;;;;29.52;15.15;;;;;;;;;;5010593;28;20048;-89
2023/12/02 02:47:50;;;;;;;29.63;15.23;;;;;;;;;;5007299;28;20046;-87
2023/12/02 02:50:17;;;;;;;32.25;17.35;;;;;;;;;;5018247;28;20078;-88
2023/12/02 02:52:43;;;;;;;24.08;14.23;;;;;;;;;;5026465;28;20435;-89
2023/12/02 02:55:09;;;;;;;26.23;15.63;;;;;;;;;;5009125;28;20090;-89
2023/12/02 02:57:35;;;;;;;29.73;15.73;;;;;;;;;;5031455;28;20096;-89
2023/12/02 03:00:04;;;;;;;28.10;15.57;;;;;;;;;;5027825;28;20066;-90
2023/12/02 03:02:30;;;;;;;29.70;16.23;;;;;;;;;;5012373;28;20100;-88
2023/12/02 03:04:56;;;;;;;28.77;15.85;;;;;;;;;;5010527;28;20050;-88
2023/12/02 03:07:22;;;;;;;28.60;15.48;;;;;;;;;;5013089;28;20519;-90
2023/12/02 03:09:48;;;;;;;24.70;15.32;;;;;;;;;;5009797;28;20061;-90
2023/12/02 03:12:14;;;;;;;29.88;15.50;;;;;;;;;;4996324;28;20103;-88
2023/12/02 03:14:40;;;;;;;25.83;15.57;;;;;;;;;;4996125;28;20045;-89
2023/12/02 03:17:09;;;;;;;27.13;16.08;;;;;;;;;;5026180;28;20053;-90
2023/12/02 03:19:35;;;;;;;25.48;15.63;;;;;;;;;;5028315;28;20173;-89
2023/12/02 03:22:02;;;;;;;25.05;15.32;;;;;;;;;;5008827;28;20089;-88
2023/12/02 03:24:29;;;;;;;27.73;15.52;;;;;;;;;;5034172;28;20137;-89
2023/12/02 03:26:56;;;;;;;26.35;15.35;;;;;;;;;;5023752;28;20061;-89
2023/12/02 03:29:22;;;;;;;28.05;14.85;;;;;;;;;;5009165;28;20057;-89
2023/12/02 03:31:48;;;;;;;32.03;15.98;;;;;;;;;;5011138;28;20129;-89
2023/12/02 03:34:14;;;;;;;26.23;14.65;;;;;;;;;;5001690;28;20128;-87
2023/12/02 03:36:40;;;;;;;27.17;15.02;;;;;;;;;;5011430;28;20049;-89
2023/12/02 03:39:06;;;;;;;27.15;15.63;;;;;;;;;;5010203;28;20042;-89
2023/12/02 03:41:32;;;;;;;30.02;15.98;;;;;;;;;;5002526;28;20042;-89
2023/12/02 03:43:58;;;;;;;27.35;14.95;;;;;;;;;;5008831;28;20488;-89
2023/12/02 03:46:28;;;;;;;28.48;16.48;;;;;;;;;;5025302;28;20093;-89
2023/12/02 03:48:55;;;;;;;29.38;15.00;;;;;;;;;;5020173;28;20050;-89
2023/12/02 03:51:21;;;;;;;26.77;14.95;;;;;;;;;;5008774;28;20046;-90
2023/12/02 03:53:47;;;;;;;26.27;15.43;;;;;;;;;;5023328;28;20054;-88
2023/12/02 03:56:13;;;;;;;27.30;14.23;;;;;;;;;;5019542;28;20069;-88
2023/12/02 03:58:39;;;;;;;24.85;14.82;;;;;;;;;;5025049;28;20129;-88
2023/12/02 04:01:05;;;;;;;26.45;14.88;;;;;;;;;;5027966;28;20484;-89
2023/12/02 04:03:32;;;;;;;26.83;15.43;;;;;;;;;;5013236;28;20049;-89
2023/12/02 04:05:58;;;;;;;28.73;15.75;;;;;;;;;;5015860;28;20041;-88
2023/12/02 04:08:24;;;;;;;29.08;15.38;;;;;;;;;;5001061;28;20050;-88
2023/12/02 04:10:50;;;;;;;26.45;15.63;;;;;;;;;;5007398;28;20076;-88
2023/12/02 04:13:16;;;;;;;25.80;15.45;;;;;;;;;;5007366;28;20168;-88
2023/12/02 04:15:42;;;;;;;26.27;15.40;;;;;;;;;;5010811;28;20046;-88
2023/12/02 04:18:09;;;;;;;27.85;15.77;;;;;;;;;;5009467;28;20115;-88
2023/12/02 04:20:35;;;;;;;26.63;14.68;;;;;;;;;;5039640;28;20042;-87
2023/12/02 04:23:01;;;;;;;26.45;15.05;;;;;;;;;;5016284;28;20045;-88
2023/12/02 04:25:27;;;;;;;26.90;15.27;;;;;;;;;;5023521;28;20050;-87
2023/12/02 04:27:53;;;;;;;28.00;14.90;;;;;;;;;;5004443;28;20389;-86
2023/12/02 04:30:19;;;;;;;27.10;14.95;;;;;;;;;;5023063;28;20046;-88
2023/12/02 04:32:45;;;;;;;27.38;14.75;;;;;;;;;;5038654;28;20062;-87
2023/12/02 04:35:11;;;;;;;24.85;14.50;;;;;;;;;;4998286;28;20115;-88
2023/12/02 04:37:37;;;;;;;27.30;15.13;;;;;;;;;;5007394;28;20468;-89
2023/12/02 04:40:04;;;;;;;24.70;14.45;;;;;;;;;;5023337;28;20125;-88
2023/12/02 04:42:30;;;;;;;28.38;15.02;;;;;;;;;;5033921;28;20578;-87
2023/12/02 04:44:56;;;;;;;29.60;16.25;;;;;;;;;;5009669;28;20435;-88
2023/12/02 04:47:22;;;;;;;27.23;15.02;;;;;;;;;;5008895;28;20049;-88
2023/12/02 04:49:48;;;;;;;29.05;16.20;;;;;;;;;;4992377;28;20043;-89
2023/12/02 04:52:16;;;;;;;27.45;14.75;;;;;;;;;;5006878;28;20065;-87
2023/12/02 04:54:42;;;;;;;28.77;16.15;;;;;;;;;;5027676;28;20488;-87
2023/12/02 04:57:08;;;;;;;30.67;15.77;;;;;;;;;;5008554;28;20480;-87
2023/12/02 04:59:34;;;;;;;29.67;16.10;;;;;;;;;;5023848;28;20068;-87
2023/12/02 05:02:00;;;;;;;27.02;15.13;;;;;;;;;;5023794;28;20089;-87
2023/12/02 05:04:26;;;;;;;31.08;16.80;;;;;;;;;;5008173;28;20496;-87
2023/12/02 05:06:52;;;;;;;25.55;15.57;;;;;;;;;;5008146;28;20042;-87
2023/12/02 05:09:18;;;;;;;26.75;14.85;;;;;;;;;;5007899;28;20042;-87
2023/12/02 05:11:44;;;;;;;33.08;17.58;;;;;;;;;;5024799;28;20091;-87
2023/12/02 05:14:10;;;;;;;29.33;16.65;;;;;;;;;;5008740;28;20054;-86
2023/12/02 05:16:37;;;;;;;27.55;15.02;;;;;;;;;;5025711;28;20046;-88
2023/12/02 05:19:03;;;;;;;30.08;16.45;;;;;;;;;;5007761;28;20061;-87
2023/12/02 05:21:29;;;;;;;26.75;15.60;;;;;;;;;;5007094;28;20057;-87
2023/12/02 05:23:55;;;;;;;28.65;14.77;;;;;;;;;;4992319;28;20125;-88
2023/12/02 05:26:21;;;;;;;28.30;15.13;;;;;;;;;;5023005;28;20125;-87
2023/12/02 05:28:48;;;;;;;31.58;16.27;;;;;;;;;;5040547;28;21029;-88
2023/12/02 05:31:14;;;;;;;28.17;15.63;;;;;;;;;;5009276;28;20464;-87
2023/12/02 05:33:40;;;;;;;29.50;16.10;;;;;;;;;;5024395;28;20050;-88
2023/12/02 05:36:08;;;;;;;29.83;16.25;;;;;;;;;;5006811;28;20065;-88
2023/12/02 05:38:34;;;;;;;32.30;17.10;;;;;;;;;;4994221;28;20050;-87
2023/12/02 05:41:03;;;;;;;27.50;15.68;;;;;;;;;;5007740;28;20042;-87
2023/12/02 05:43:31;;;;;;;29.08;15.93;;;;;;;;;;4995813;28;20653;-87
2023/12/02 05:45:57;;;;;;;29.55;17.45;;;;;;;;;;5024290;28;20053;-88
2023/12/02 05:48:24;;;;;;;32.25;16.27;;;;;;;;;;5007516;28;20752;-88
2023/12/02 05:50:50;;;;;;;28.85;16.48;;;;;;;;;;5008166;28;20416;-87
2023/12/02 05:53:16;;;;;;;28.60;15.45;;;;;;;;;;5045071;28;20064;-86
2023/12/02 05:55:42;;;;;;;34.60;17.42;;;;;;;;;;5012974;28;20050;-88
2023/12/02 05:58:08;;;;;;;34.83;17.25;;;;;;;;;;5017118;28;20046;-89
2023/12/02 06:00:35;;;;;;;31.20;15.55;;;;;;;;;;5014808;28;20088;-89
2023/12/02 06:03:01;;;;;;;30.98;16.90;;;;;;;;;;5015296;28;20053;-88
2023/12/02 06:05:28;;;;;;;32.63;16.73;;;;;;;;;;5013497;28;20492;-89
2023/12/02 06:07:54;;;;;;;33.85;17.58;;;;;;;;;;5007796;28;20044;-88
2023/12/02 06:10:20;;;;;;;32.70;16.63;;;;;;;;;;5033162;28;20381;-88
2023/12/02 06:12:45;;;;;;;31.70;16.98;;;;;;;;;;5043631;28;20077;-88
2023/12/02 06:15:11;;;;;;;32.33;16.75;;;;;;;;;;5014243;28;20571;-90
2023/12/02 06:17:38;;;;;;;32.95;18.15;;;;;;;;;;5043598;28;20050;-89
2023/12/02 06:20:06;;;;;;;34.03;17.98;;;;;;;;;;5036404;28;20634;-88
2023/12/02 06:22:33;;;;;;;29.67;15.88;;;;;;;;;;5031343;28;20050;-89
2023/12/02 06:24:59;;;;;;;31.13;16.27;;;;;;;;;;5027537;28;20584;-89
2023/12/02 06:27:25;;;;;;;31.98;17.30;;;;;;;;;;5031928;28;20129;-88
2023/12/02 06:29:52;;;;;;;34.05;17.42;;;;;;;;;;5015484;28;20501;-88
2023/12/02 06:32:18;;;;;;;31.42;16.83;;;;;;;;;;4998777;28;20464;-88
2023/12/02 06:34:44;;;;;;;32.63;17.90;;;;;;;;;;5024188;28;20459;-87
2023/12/02 06:37:10;;;;;;;33.40;17.30;;;;;;;;;;5015976;28;20653;-89
2023/12/02 06:39:36;;;;;;;31.20;16.83;;;;;;;;;;5002235;28;20045;-88
2023/12/02 06:42:02;;;;;;;33.47;17.17;;;;;;;;;;5014499;28;20042;-90
2023/12/02 06:44:28;;;;;;;29.52;16.13;;;;;;;;;;5014117;28;20042;-89
2023/12/02 06:46:55;;;;;;;31.25;15.90;;;;;;;;;;5001832;28;20084;-88
2023/12/02 06:49:21;;;;;;;31.05;16.52;;;;;;;;;;5011402;28;20145;-87
2023/12/02 06:51:47;;;;;;;32.70;17.13;;;;;;;;;;5010646;28;20508;-86
2023/12/02 06:54:13;;;;;;;31.83;15.93;;;;;;;;;;5008091;28;20050;-85
2023/12/02 06:56:39;;;;;;;32.83;17.05;;;;;;;;;;5029424;28;20068;-87
2023/12/02 06:59:05;;;;;;;29.90;16.38;;;;;;;;;;5013288;28;20046;-88
2023/12/02 07:01:32;;;;;;;30.83;16.33;;;;;;;;;;5014825;28;20038;-86
2023/12/02 07:03:59;;;;;;;29.58;15.27;;;;;;;;;;5011964;28;20053;-87
2023/12/02 07:06:26;;;;;;;32.72;17.75;;;;;;;;;;5010775;28;20045;-86
2023/12/02 07:08:53;;;;;;;32.42;17.00;;;;;;;;;;5006822;28;20050;-87
2023/12/02 07:11:20;;;;;;;33.08;17.40;;;;;;;;;;5011054;28;20129;-86
2023/12/02 07:13:46;;;;;;;32.42;16.38;;;;;;;;;;5007417;28;20088;-87
2023/12/02 07:16:12;;;;;;;34.03;16.45;;;;;;;;;;5023493;28;20105;-86
2023/12/02 07:18:38;;;;;;;31.85;16.83;;;;;;;;;;5010822;28;20751;-86
2023/12/02 07:21:04;;;;;;;30.55;15.65;;;;;;;;;;5010867;28;20764;-86
2023/12/02 07:23:31;;;;;;;33.25;17.55;;;;;;;;;;5025820;28;20050;-86
2023/12/02 07:25:57;;;;;;;31.20;15.75;;;;;;;;;;5026323;28;20093;-88
2023/12/02 07:28:23;;;;;;;32.50;16.65;;;;;;;;;;5011811;28;20076;-88
2023/12/02 07:30:52;;;;;;;32.25;16.75;;;;;;;;;;5027774;28;20100;-88
2023/12/02 07:33:21;;;;;;;27.98;14.90;;;;;;;;;;5010490;28;20042;-89
2023/12/02 07:35:47;;;;;;;33.22;17.30;;;;;;;;;;5010870;28;20569;-88
2023/12/02 07:38:13;;;;;;;33.90;16.73;;;;;;;;;;5028756;28;21179;-87
2023/12/02 07:40:40;;;;;;;34.13;16.80;;;;;;;;;;5013282;28;20095;-88
2023/12/02 07:43:06;;;;;;;33.95;17.15;;;;;;;;;;5012461;28;20354;-88
2023/12/02 07:45:32;;;;;;;31.33;17.48;;;;;;;;;;5028802;28;20123;-89
2023/12/02 07:47:58;;;;;;;32.17;17.10;;;;;;;;;;5016000;28;20053;-89
2023/12/02 07:50:24;;;;;;;30.13;16.65;;;;;;;;;;5010007;28;20046;-88
2023/12/02 07:52:50;;;;;;;32.80;16.65;;;;;;;;;;5008259;28;20047;-85
2023/12/02 07:55:16;;;;;;;34.05;18.08;;;;;;;;;;5006968;28;20353;-87
2023/12/02 07:57:42;;;;;;;32.25;16.65;;;;;;;;;;5025953;28;20046;-86
2023/12/02 08:00:09;;;;;;;36.17;16.60;;;;;;;;;;5026082;28;20046;-85
2023/12/02 08:02:35;;;;;;;31.63;17.38;;;;;;;;;;5026731;28;20053;-88
2023/12/02 08:05:01;;;;;;;32.90;17.13;;;;;;;;;;5027234;28;20132;-86
2023/12/02 08:07:27;;;;;;;31.52;16.77;;;;;;;;;;5009028;28;20040;-88
2023/12/02 08:09:54;;;;;;;32.28;17.90;;;;;;;;;;5027155;28;20034;-87
2023/12/02 08:12:20;;;;;;;34.30;17.65;;;;;;;;;;5002938;28;20042;-90
2023/12/02 08:14:47;;;;;;;32.70;17.20;;;;;;;;;;5007664;28;20111;-87
2023/12/02 08:17:13;;;;;;;36.90;17.23;;;;;;;;;;5026115;28;20412;-89
2023/12/02 08:19:39;;;;;;;33.58;17.67;;;;;;;;;;5026378;28;20047;-89
2023/12/02 08:22:09;;;;;;;36.92;17.05;;;;;;;;;;5025359;28;20120;-89
2023/12/02 08:24:42;;;;;;;34.05;16.75;;;;;;;;;;5010234;28;20103;-89
2023/12/02 08:27:08;;;;;;;35.28;18.83;;;;;;;;;;5009517;28;20069;-89
2023/12/02 08:29:34;;;;;;;35.97;17.67;;;;;;;;;;4974666;28;20053;-90
2023/12/02 08:32:00;;;;;;;35.45;18.10;;;;;;;;;;4988875;28;20544;-89
2023/12/02 08:34:26;;;;;;;34.85;18.30;;;;;;;;;;5012130;28;20096;-90
2023/12/02 08:36:52;;;;;;;32.78;16.77;;;;;;;;;;5015524;28;20042;-91
2023/12/02 08:39:19;;;;;;;32.95;17.67;;;;;;;;;;5026239;28;20469;-88
2023/12/02 08:41:47;;;;;;;32.00;15.80;;;;;;;;;;5012875;28;20570;-91
2023/12/02 08:44:15;;;;;;;31.70;17.15;;;;;;;;;;5028535;28;20038;-88
2023/12/02 08:46:42;;;;;;;39.55;17.13;;;;;;;;;;5009137;28;20053;-88
2023/12/02 08:49:11;;;;;;;31.73;15.82;;;;;;;;;;5010732;28;20077;-90
2023/12/02 08:51:43;;;;;;;32.63;17.60;;;;;;;;;;5011654;28;20132;-90
2023/12/02 08:54:09;;;;;;;32.50;16.33;;;;;;;;;;5011816;28;20483;-90
2023/12/02 08:56:39;;;;;;;33.55;17.45;;;;;;;;;;5029181;28;20100;-90
2023/12/02 08:59:05;;;;;;;33.33;18.20;;;;;;;;;;5011658;28;20100;-88
2023/12/02 09:01:31;;;;;;;32.35;16.17;;;;;;;;;;5012882;28;20038;-88
2023/12/02 09:03:58;;;;;;;31.33;16.42;;;;;;;;;;5011591;28;20129;-87
2023/12/02 09:06:24;;;;;;;31.90;16.65;;;;;;;;;;5010896;28;20065;-87
2023/12/02 09:08:54;;;;;;;33.22;16.70;;;;;;;;;;5011052;28;20096;-88
2023/12/02 09:11:24;;;;;;;31.85;16.15;;;;;;;;;;5012032;28;20129;-88
2023/12/02 09:13:50;;;;;;;33.00;16.38;;;;;;;;;;5017981;28;20050;-87
2023/12/02 09:16:20;;;;;;;30.42;16.85;;;;;;;;;;5025802;28;20059;-88
2023/12/02 09:18:47;;;;;;;31.77;16.83;;;;;;;;;;5024296;28;20122;-90
2023/12/02 09:21:22;;;;;;;34.80;17.50;;;;;;;;;;5025692;28;20054;-87
2023/12/02 09:23:48;;;;;;;34.58;17.05;;;;;;;;;;4989133;28;20049;-88
2023/12/02 09:26:33;;;;;;;33.92;17.92;;;;;;;;;;5006731;28;20154;-88
2023/12/02 09:29:03;;;;;;;34.83;17.65;;;;;;;;;;4993023;28;20140;-91
2023/12/02 09:31:29;;;;;;;35.25;17.42;;;;;;;;;;4993713;28;20108;-88
2023/12/02 09:33:58;;;;;;;31.73;16.70;;;;;;;;;;5013811;28;20514;-88
2023/12/02 09:36:34;;;;;;;34.20;17.38;;;;;;;;;;5013242;28;20054;-86
2023/12/02 09:39:23;;;;;;;31.55;15.50;;;;;;;;;;5018085;28;20080;-87
2023/12/02 09:41:50;;;;;;;36.88;18.67;;;;;;;;;;5022851;28;20061;-91
2023/12/02 09:44:15;;;;;;;33.08;17.63;;;;;;;;;;5047014;28;20454;-91
2023/12/02 09:46:48;;;;;;;33.47;18.13;;;;;;;;;;5030095;28;20076;-92
2023/12/02 09:49:24;;;;;;;36.33;17.50;;;;;;;;;;5023199;28;20507;-87
2023/12/02 09:51:50;;;;;;;34.10;17.75;;;;;;;;;;5008081;28;20105;-89
2023/12/02 09:54:35;;;;;;;34.42;18.02;;;;;;;;;;5009022;28;20053;-89
2023/12/02 09:57:11;;;;;;;30.13;16.15;;;;;;;;;;5007215;28;20460;-92
2023/12/02 09:59:46;;;;;;;34.53;17.52;;;;;;;;;;5011414;28;20048;-90
2023/12/02 10:02:33;;;;;;;33.42;17.90;;;;;;;;;;5023559;28;20494;-90
2023/12/02 10:05:00;;;;;;;33.08;18.50;;;;;;;;;;5031993;28;20042;-89
2023/12/02 10:07:48;;;;;;;36.53;18.50;;;;;;;;;;5010846;28;20038;-88
2023/12/02 10:10:17;;;;;;;36.03;18.85;;;;;;;;;;5011640;28;20086;-89
2023/12/02 10:13:02;;;;;;;31.55;17.27;;;;;;;;;;5010756;28;20055;-91
2023/12/02 10:15:29;;;;;;;33.92;17.02;;;;;;;;;;5010028;28;20570;-89
2023/12/02 10:18:17;;;;;;;33.45;18.55;;;;;;;;;;5010971;28;20369;-89
2023/12/02 10:20:55;;;;;;;60.20;19.77;;;;;;;;;;4995640;28;20049;-90
2023/12/02 10:23:41;;;;;;;36.47;18.40;;;;;;;;;;4998975;28;20393;-90
2023/12/02 10:26:16;;;;;;;38.08;17.83;;;;;;;;;;5008728;28;20058;-90
2023/12/02 10:28:51;;;;;;;34.00;17.70;;;;;;;;;;5007788;28;20408;-89
2023/12/02 10:31:23;;;;;;;36.00;18.70;;;;;;;;;;5022513;28;20076;-90
2023/12/02 10:34:09;;;;;;;33.28;18.70;;;;;;;;;;5023738;28;20777;-90
2023/12/02 10:36:38;;;;;;;37.25;19.55;;;;;;;;;;5025165;28;20046;-91
2023/12/02 10:39:09;;;;;;;35.78;18.88;;;;;;;;;;5012738;28;20556;-90
2023/12/02 10:41:59;;;;;;;34.03;19.33;;;;;;;;;;4983104;28;20403;-91
2023/12/02 10:44:26;;;;;;;35.33;18.80;;;;;;;;;;5012623;28;20054;-89
2023/12/02 10:46:55;;;;;;;33.80;18.70;;;;;;;;;;5027207;28;20038;-89
2023/12/02 10:49:22;;;;;;;36.83;19.90;;;;;;;;;;5009937;28;20042;-88
2023/12/02 10:51:49;;;;;;;33.30;18.35;;;;;;;;;;5028050;28;20081;-88
2023/12/02 10:54:17;;;;;;;37.33;18.92;;;;;;;;;;5013056;28;20045;-87
2023/12/02 10:56:45;;;;;;;32.97;18.67;;;;;;;;;;5010520;28;20053;-87
2023/12/02 10:59:11;;;;;;;61.40;36.90;;;;;;;;;;5011882;28;20046;-88
2023/12/02 11:02:03;;;;;;;35.08;18.83;;;;;;;;;;5027479;28;20085;-89
2023/12/02 11:04:33;;;;;;;32.28;18.05;;;;;;;;;;5029153;28;20045;-91
2023/12/02 11:07:03;;;;;;;33.78;18.70;;;;;;;;;;5023514;28;20120;-88
2023/12/02 11:09:45;;;;;;;31.15;17.85;;;;;;;;;;5045470;28;20050;-85
2023/12/02 11:12:32;;;;;;;30.02;18.13;;;;;;;;;;5011932;28;20051;-89
2023/12/02 11:15:04;;;;;;;33.45;16.83;;;;;;;;;;5028513;28;20050;-89
2023/12/02 11:18:04;;;;;;;32.00;18.27;;;;;;;;;;4985581;28;20101;-91
2023/12/02 11:20:49;;;;;;;31.75;18.45;;;;;;;;;;4987691;28;20046;-88
2023/12/02 11:23:35;;;;;;;32.03;17.73;;;;;;;;;;5029083;28;20046;-89
2023/12/02 11:26:11;;;;;;;32.55;18.00;;;;;;;;;;5024743;28;20058;-88
2023/12/02 11:29:01;;;;;;;31.50;17.27;;;;;;;;;;4998063;28;20054;-92
2023/12/02 11:31:34;;;;;;;33.20;18.83;;;;;;;;;;4997466;28;20085;-91
2023/12/02 11:34:16;;;;;;;32.28;19.13;;;;;;;;;;5047761;28;20111;-92
2023/12/02 11:37:17;;;;;;;32.58;17.35;;;;;;;;;;5048637;28;20045;-91
2023/12/02 11:40:01;;;;;;;34.80;19.42;;;;;;;;;;4998617;28;20054;-93
2023/12/02 11:42:30;;;;;;;30.73;17.38;;;;;;;;;;4982807;28;20113;-93
2023/12/02 11:45:16;;;;;;;31.10;17.55;;;;;;;;;;5041054;28;20042;-93
2023/12/02 11:47:44;;;;;;;31.05;17.55;;;;;;;;;;5047824;28;20050;-92
2023/12/02 11:50:16;;;;;;;33.17;18.23;;;;;;;;;;4998387;28;20312;-90
2023/12/02 11:53:01;;;;;;;33.05;18.13;;;;;;;;;;5032282;28;20072;-88
2023/12/02 11:55:42;;;;;;;32.70;18.13;;;;;;;;;;5019818;28;20061;-89
2023/12/02 11:58:15;;;;;;;32.53;18.45;;;;;;;;;;4997911;28;20393;-91
2023/12/02 12:00:48;;;;;;;31.30;17.75;;;;;;;;;;5016515;28;20042;-91
2023/12/02 12:03:25;;;;;;;30.10;17.25;;;;;;;;;;5013923;28;20042;-92
2023/12/02 12:05:57;;;;;;;32.78;18.05;;;;;;;;;;5012753;28;20128;-88
2023/12/02 12:08:27;;;;;;;31.95;18.48;;;;;;;;;;5012332;28;20491;-90
2023/12/02 12:10:54;;;;;;;31.73;17.02;;;;;;;;;;5001065;28;20046;-90
2023/12/02 12:13:21;;;;;;;31.05;17.63;;;;;;;;;;5025151;28;20042;-90
2023/12/02 12:15:47;;;;;;;33.63;18.52;;;;;;;;;;5026329;28;20065;-90
2023/12/02 12:18:15;;;;;;;32.55;18.63;;;;;;;;;;5024204;28;20050;-91
2023/12/02 12:20:44;;;;;;;33.88;19.17;;;;;;;;;;5024627;28;20047;-90
2023/12/02 12:23:11;;;;;;;32.20;18.40;;;;;;;;;;5022936;28;20050;-88
2023/12/02 12:25:37;;;;;;;33.88;18.10;;;;;;;;;;5033030;28;20050;-89
2023/12/02 12:28:07;;;;;;;33.30;19.00;;;;;;;;;;5057903;28;20045;-89
2023/12/02 12:30:46;;;;;;;33.70;19.60;;;;;;;;;;5046901;28;20088;-89
2023/12/02 12:33:17;;;;;;;34.33;18.05;;;;;;;;;;5058251;28;20049;-93
2023/12/02 12:35:47;;;;;;;30.83;18.67;;;;;;;;;;5053569;28;20037;-91
2023/12/02 12:38:15;;;;;;;32.88;17.65;;;;;;;;;;5050971;28;20080;-92
2023/12/02 12:40:41;;;;;;;28.15;16.55;;;;;;;;;;5035303;28;20053;-92
2023/12/02 12:43:11;;;;;;;31.67;16.77;;;;;;;;;;5017375;28;20041;-92
2023/12/02 12:45:54;;;;;;;32.80;18.42;;;;;;;;;;5022500;28;20042;-91
2023/12/02 12:48:29;;;;;;;30.65;17.58;;;;;;;;;;5013750;28;20067;-93
2023/12/02 12:50:59;;;;;;;30.27;18.05;;;;;;;;;;5022272;28;20052;-92
2023/12/02 12:53:29;;;;;;;34.38;18.42;;;;;;;;;;5050739;28;20454;-91
2023/12/02 12:56:05;;;;;;;33.35;17.77;;;;;;;;;;5032789;28;20060;-91
2023/12/02 12:59:08;;;;;;;29.88;17.55;;;;;;;;;;5054093;28;20055;-93
2023/12/02 13:01:38;;;;;;;31.40;17.08;;;;;;;;;;5046984;28;20491;-92
2023/12/02 13:04:16;;;;;;;29.75;16.63;;;;;;;;;;5012890;28;20782;-88
2023/12/02 13:06:49;;;;;;;33.03;17.63;;;;;;;;;;5010968;28;20050;-90
2023/12/02 13:09:17;;;;;;;;;;;;;;;;;;5048476;28;20049;-89
2023/12/02 13:12:07;;;;;;;31.75;17.05;;;;;;;;;;5048681;28;20402;-88
2023/12/02 13:14:37;;;;;;;32.25;17.85;;;;;;;;;;5037432;28;20694;-87
2023/12/02 13:17:03;;;;;;;32.60;19.20;;;;;;;;;;5027649;28;20037;-90
2023/12/02 13:19:35;;;;;;;34.42;18.55;;;;;;;;;;5013273;28;20050;-91
2023/12/02 13:22:03;;;;;;;28.77;16.35;;;;;;;;;;5018193;28;20099;-90
2023/12/02 13:24:32;;;;;;;30.25;17.90;;;;;;;;;;4998578;28;20044;-91
2023/12/02 13:26:58;;;;;;;29.40;15.80;;;;;;;;;;5030190;28;21161;-90
2023/12/02 13:29:25;;;;;;;28.65;17.17;;;;;;;;;;5015150;28;20504;-90
2023/12/02 13:31:52;;;;;;;33.92;18.63;;;;;;;;;;5017435;28;20049;-92
2023/12/02 13:34:19;;;;;;;31.13;17.27;;;;;;;;;;5010633;28;20045;-89
2023/12/02 13:36:49;;;;;;;32.10;17.38;;;;;;;;;;5029343;28;20053;-92
2023/12/02 13:39:32;;;;;;;33.70;18.60;;;;;;;;;;5013281;28;20069;-90
2023/12/02 13:41:58;;;;;;;;;;;;;;;;;;5011001;28;20041;-88
2023/12/02 13:44:28;;;;;;;29.73;15.98;;;;;;;;;;4994615;28;19921;-92
2023/12/02 13:47:04;;;;;;;30.98;17.83;;;;;;;;;;5028657;28;20046;-92
2023/12/02 13:49:44;;;;;;;31.77;17.85;;;;;;;;;;5013367;28;20042;-89
2023/12/02 13:52:22;;;;;;;34.20;18.02;;;;;;;;;;5027853;28;20480;-90
2023/12/02 13:55:07;;;;;;;30.17;18.17;;;;;;;;;;5011991;28;20038;-91
2023/12/02 13:57:54;;;;;;;33.65;18.95;;;;;;;;;;5044678;28;20056;-90
2023/12/02 14:00:50;;;;;;;29.23;17.98;;;;;;;;;;5029318;28;20381;-91
2023/12/02 14:03:40;;;;;;;31.38;17.33;;;;;;;;;;5007697;28;20068;-90
2023/12/02 14:06:13;;;;;;;30.05;18.30;;;;;;;;;;4991460;28;20050;-91
2023/12/02 14:08:59;;;;;;;30.27;18.30;;;;;;;;;;4996000;28;20047;-92
2023/12/02 14:11:35;;;;;;;32.22;18.65;;;;;;;;;;4986543;28;20571;-91
2023/12/02 14:14:29;;;;;;;34.35;18.58;;;;;;;;;;5056335;28;20411;-93
2023/12/02 14:17:21;;;;;;;34.83;17.75;;;;;;;;;;5023590;28;20124;-90
2023/12/02 14:19:57;;;;;;;30.83;16.70;;;;;;;;;;5005204;28;20071;-91
2023/12/02 14:22:39;;;;;;;34.85;18.77;;;;;;;;;;5010248;28;20042;-89
2023/12/02 14:25:24;;;;;;;34.60;18.73;;;;;;;;;;5007795;28;20068;-89
2023/12/02 14:28:04;;;;;;;29.05;17.10;;;;;;;;;;5008840;28;20475;-90
2023/12/02 14:30:49;;;;;;;33.42;19.02;;;;;;;;;;4988267;28;20057;-88
2023/12/02 14:33:53;;;;;;;34.00;17.63;;;;;;;;;;5012308;28;20061;-89